Time;durP1;ratioP1;P1;durP2;ratioP2;P2;SDS_P1;SDS_P2;PMS_P1;PMS_P2;Temp;Humidity;BMP_temperature;BMP_pressure;BME280_temperature;BME280_humidity;BME280_pressure;Samples;Min_cycle;Max_cycle;Signal;HPM_P1;HPM_P2
2022/10/09 00:01:15;;;;;;;11.40;4.17;;;;;;;11.00;87.43;99617.12;1714419;83;21468;-44
2022/10/09 00:03:43;;;;;;;10.95;4.35;;;;;;;11.00;87.04;99618.45;1709582;84;21006;-46
2022/10/09 00:06:14;;;;;;;12.33;4.08;;;;;;;10.97;87.21;99624.33;1714611;82;21027;-52
2022/10/09 00:08:42;;;;;;;13.18;4.85;;;;;;;10.96;86.78;99628.75;1713924;82;21006;-44
2022/10/09 00:11:13;;;;;;;12.30;4.03;;;;;;;10.91;87.27;99630.77;1714527;83;21543;-44
2022/10/09 00:13:38;;;;;;;9.35;4.37;;;;;;;10.89;87.45;99639.20;1714537;82;20999;-52
2022/10/09 00:16:07;;;;;;;18.82;4.87;;;;;;;10.85;87.85;99632.41;1714476;83;20979;-48
2022/10/09 00:18:33;;;;;;;12.88;4.65;;;;;;;10.81;88.46;99637.45;1714495;83;21516;-45
2022/10/09 00:20:59;;;;;;;7.30;4.00;;;;;;;10.80;87.68;99641.83;1714499;83;21042;-48
2022/10/09 00:23:25;;;;;;;13.45;4.90;;;;;;;10.72;88.19;99639.59;1714658;83;21030;-46
2022/10/09 00:25:55;;;;;;;11.75;4.30;;;;;;;10.72;88.60;99644.02;1714497;83;20991;-44
2022/10/09 00:28:23;;;;;;;15.32;4.55;;;;;;;10.64;88.61;99644.41;1713833;84;21003;-46
2022/10/09 00:30:49;;;;;;;9.20;4.47;;;;;;;10.63;88.12;99650.58;1714473;83;21503;-47
2022/10/09 00:33:15;;;;;;;10.43;4.72;;;;;;;10.63;88.37;99652.37;1714616;83;20995;-45
2022/10/09 00:35:41;;;;;;;9.43;4.72;;;;;;;10.56;88.31;99650.02;1714581;83;20971;-45
2022/10/09 00:38:07;;;;;;;10.68;4.47;;;;;;;10.56;88.92;99650.50;1714517;83;21018;-45
2022/10/09 00:40:35;;;;;;;15.10;4.80;;;;;;;10.54;89.40;99654.98;1714457;84;21042;-42
2022/10/09 00:43:01;;;;;;;10.80;4.78;;;;;;;10.53;89.10;99653.27;1714447;83;20994;-41
2022/10/09 00:45:27;;;;;;;8.90;5.35;;;;;;;10.43;90.23;99652.88;1714586;83;21512;-47
2022/10/09 00:48:06;;;;;;;11.33;4.85;;;;;;;10.41;90.25;99653.89;1719757;82;21410;-46
2022/10/09 00:50:43;;;;;;;12.15;4.42;;;;;;;10.38;90.29;99657.03;1727019;83;21507;-47
2022/10/09 00:53:12;;;;;;;;;;;;;;;10.35;89.86;99653.70;1729700;83;20987;-47
2022/10/09 00:55:38;;;;;;;12.15;4.53;;;;;;;10.28;90.84;99656.23;1726973;82;20159;-45
2022/10/09 00:58:05;;;;;;;12.83;5.20;;;;;;;10.28;90.31;99651.81;1727279;83;20997;-43
2022/10/09 01:00:31;;;;;;;10.08;4.70;;;;;;;10.26;90.67;99652.36;1727063;82;20994;-41
2022/10/09 01:02:57;;;;;;;8.65;4.33;;;;;;;10.31;90.07;99656.94;1727144;82;21029;-45
2022/10/09 01:05:30;;;;;;;14.13;5.00;;;;;;;10.30;90.93;99657.84;1708687;83;21511;-41
2022/10/09 01:08:31;;;;;;;8.75;5.10;;;;;;;10.32;90.67;99665.23;1723347;83;21369;-48
2022/10/09 01:11:17;;;;;;;14.35;4.78;;;;;;;10.39;90.41;99671.05;1727080;82;21542;-42
2022/10/09 01:14:13;;;;;;;12.65;4.83;;;;;;;10.39;91.09;99671.05;1712628;83;21041;-44
2022/10/09 01:16:44;;;;;;;8.68;4.72;;;;;;;10.36;91.18;99670.72;1727135;83;20987;-48
2022/10/09 01:19:51;;;;;;;10.18;5.70;;;;;;;10.34;90.97;99676.52;1727166;83;21645;-39
2022/10/09 01:22:43;;;;;;;14.93;5.95;;;;;;;10.27;91.79;99665.87;1727098;82;21476;-51
2022/10/09 01:25:14;;;;;;;10.63;5.78;;;;;;;10.27;92.00;99679.02;1715448;83;21508;-40
2022/10/09 01:27:41;;;;;;;12.45;6.42;;;;;;;10.26;92.28;99681.27;1726327;83;21598;-44
2022/10/09 01:30:10;;;;;;;14.80;6.10;;;;;;;10.31;91.61;99685.85;1727077;82;21011;-48
2022/10/09 01:32:43;;;;;;;17.37;5.97;;;;;;;10.28;91.59;99685.98;1726926;83;21035;-47
2022/10/09 01:35:11;;;;;;;10.38;5.70;;;;;;;10.33;91.07;99691.91;1725768;83;21528;-48
2022/10/09 01:37:41;;;;;;;13.60;6.30;;;;;;;10.32;91.19;99692.83;1727149;83;21041;-42
2022/10/09 01:40:09;;;;;;;12.33;6.10;;;;;;;10.32;90.91;99696.77;1708640;83;21507;-47
2022/10/09 01:42:36;;;;;;;16.73;6.17;;;;;;;10.31;91.73;99695.05;1727034;82;21506;-43
2022/10/09 01:45:02;;;;;;;12.78;6.75;;;;;;;10.35;90.28;99707.59;1727113;82;20978;-47
2022/10/09 01:47:28;;;;;;;14.15;6.03;;;;;;;10.35;90.48;99699.27;1726925;82;21042;-49
2022/10/09 01:50:14;;;;;;;11.93;5.95;;;;;;;10.30;90.79;99701.22;1727027;82;21049;-44
2022/10/09 01:52:47;;;;;;;10.72;5.60;;;;;;;10.26;91.32;99699.67;1727079;83;21033;-48
2022/10/09 01:55:39;;;;;;;13.40;6.20;;;;;;;10.25;90.91;99697.95;1727075;82;21174;-49
2022/10/09 01:58:22;;;;;;;9.68;5.67;;;;;;;10.22;91.66;99709.92;1726741;83;21003;-46
2022/10/09 02:01:02;;;;;;;13.05;5.60;;;;;;;10.21;91.50;99703.45;1727027;83;21559;-45
2022/10/09 02:03:29;;;;;;;14.28;5.95;;;;;;;10.21;91.38;99717.43;1727015;83;21500;-45
2022/10/09 02:05:56;;;;;;;9.33;5.25;;;;;;;10.20;90.99;99718.34;1727229;82;21038;-48
2022/10/09 02:08:24;;;;;;;10.58;5.28;;;;;;;10.20;90.98;99723.59;1708598;83;21006;-42
2022/10/09 02:10:54;;;;;;;7.87;5.15;;;;;;;10.15;91.41;99723.83;1727014;83;20983;-42
2022/10/09 02:13:22;;;;;;;15.88;5.42;;;;;;;10.18;90.69;99728.08;1727055;82;21449;-42
2022/10/09 02:15:51;;;;;;;;;;;;;;;10.17;90.70;99731.65;1687705;83;21054;-40
2022/10/09 02:18:39;;;;;;;13.32;5.53;;;;;;;10.02;91.31;99737.13;1727023;83;20132;-48
2022/10/09 02:21:13;;;;;;;7.17;4.90;;;;;;;10.06;90.07;99736.09;1726964;83;21033;-45
2022/10/09 02:23:41;;;;;;;8.78;4.65;;;;;;;10.03;90.07;99741.94;1726162;83;21006;-46
2022/10/09 02:26:08;;;;;;;13.28;5.03;;;;;;;9.89;90.94;99734.67;1727011;82;21095;-42
2022/10/09 02:28:34;;;;;;;;;;;;;;;9.87;91.20;99739.99;1729587;82;21329;-41
2022/10/09 02:31:14;;;;;;;12.20;5.10;;;;;;;9.87;91.25;99752.28;1727065;83;20147;-44
2022/10/09 02:33:40;;;;;;;7.90;4.75;;;;;;;9.84;90.59;99755.92;1726223;83;20974;-48
2022/10/09 02:36:06;;;;;;;11.22;5.00;;;;;;;9.83;90.53;99752.04;1727031;83;21527;-40
2022/10/09 02:38:31;;;;;;;10.20;4.97;;;;;;;9.74;91.20;99750.20;1727106;83;21491;-42
2022/10/09 02:40:59;;;;;;;12.15;4.92;;;;;;;9.74;90.53;99742.79;1728139;77;21134;-43
2022/10/09 02:43:25;;;;;;;10.85;4.60;;;;;;;9.73;90.67;99742.38;1684755;85;21023;-43
2022/10/09 02:45:51;;;;;;;7.17;4.35;;;;;;;9.72;90.32;99757.77;1692804;84;21141;-44
2022/10/09 02:48:17;;;;;;;10.18;4.50;;;;;;;9.65;91.45;99759.80;1698905;84;21511;-46
2022/10/09 02:50:43;;;;;;;10.53;4.87;;;;;;;9.67;90.63;99755.33;1694102;84;20995;-44
2022/10/09 02:53:09;;;;;;;11.88;4.70;;;;;;;9.66;90.84;99752.33;1689646;85;20998;-43
2022/10/09 02:55:35;;;;;;;13.53;4.60;;;;;;;9.65;90.89;99762.89;1689801;85;21034;-51
2022/10/09 02:58:01;;;;;;;7.97;4.78;;;;;;;9.52;91.27;99769.98;1689641;85;21034;-46
2022/10/09 03:00:27;;;;;;;13.35;4.50;;;;;;;9.54;91.45;99764.20;1689631;84;21042;-45
2022/10/09 03:02:53;;;;;;;10.78;4.70;;;;;;;9.52;91.61;99769.14;1689614;84;21038;-44
2022/10/09 03:05:18;;;;;;;7.47;4.58;;;;;;;9.50;91.35;99767.05;1689617;85;21003;-44
2022/10/09 03:07:50;;;;;;;6.92;4.95;;;;;;;9.43;91.59;99765.14;1689706;84;21488;-43
2022/10/09 03:10:12;;;;;;;;;;;;;;;9.43;91.89;99765.14;1691490;85;20987;-49
2022/10/09 03:12:38;;;;;;;9.13;5.35;;;;;;;9.38;92.26;99771.03;1689611;84;20139;-52
2022/10/09 03:15:04;;;;;;;7.70;5.10;;;;;;;9.40;91.20;99777.07;1689597;85;21006;-46
2022/10/09 03:17:30;;;;;;;11.28;5.50;;;;;;;9.36;92.04;99780.28;1689669;85;21014;-44
2022/10/09 03:19:56;;;;;;;8.78;4.90;;;;;;;9.37;91.51;99790.34;1689587;85;21169;-40
2022/10/09 03:22:22;;;;;;;12.25;5.05;;;;;;;9.36;91.39;99788.16;1689600;85;21050;-41
2022/10/09 03:24:47;;;;;;;11.63;4.97;;;;;;;9.34;91.49;99798.34;1689553;85;21051;-49
2022/10/09 03:27:13;;;;;;;15.20;5.17;;;;;;;9.32;91.78;99798.87;1689600;85;21007;-45
2022/10/09 03:29:39;;;;;;;13.00;5.70;;;;;;;9.34;91.56;99800.97;1689604;85;21003;-42
2022/10/09 03:32:04;;;;;;;8.43;4.97;;;;;;;9.34;91.79;99806.22;1689586;85;21042;-48
2022/10/09 03:34:30;;;;;;;8.10;4.70;;;;;;;9.33;91.57;99804.06;1689679;85;21026;-39
2022/10/09 03:36:56;;;;;;;10.65;5.47;;;;;;;9.32;91.97;99805.43;1689809;85;20964;-45
2022/10/09 03:39:22;;;;;;;13.93;5.85;;;;;;;9.35;91.62;99806.59;1689840;84;21519;-49
2022/10/09 03:41:47;;;;;;;15.55;5.30;;;;;;;9.30;91.89;99800.70;1689684;83;21501;-47
2022/10/09 03:44:13;;;;;;;10.25;5.28;;;;;;;9.33;91.40;99813.68;1689813;84;21518;-40
2022/10/09 03:46:39;;;;;;;10.13;5.12;;;;;;;9.34;91.78;99816.25;1689717;85;21003;-42
2022/10/09 03:49:05;;;;;;;8.05;5.28;;;;;;;9.36;91.29;99812.25;1689718;85;21097;-43
2022/10/09 03:51:30;;;;;;;13.38;5.37;;;;;;;9.25;91.99;99811.38;1689738;84;21006;-47
2022/10/09 03:53:57;;;;;;;8.70;5.50;;;;;;;9.32;91.63;99808.90;1689939;85;21010;-43
2022/10/09 03:56:22;;;;;;;8.35;5.12;;;;;;;9.26;91.88;99818.79;1689709;85;21010;-45
2022/10/09 03:58:48;;;;;;;11.48;5.83;;;;;;;9.26;91.47;99818.79;1689733;85;21003;-45
2022/10/09 04:01:14;;;;;;;13.72;5.17;;;;;;;9.25;91.23;99822.34;1689688;85;20999;-45
2022/10/09 04:03:40;;;;;;;12.98;5.33;;;;;;;9.19;91.55;99820.36;1689648;85;21062;-48
2022/10/09 04:06:05;;;;;;;14.58;8.30;;;;;;;9.23;91.04;99819.31;1689710;85;21034;-45
2022/10/09 04:08:31;;;;;;;16.17;7.37;;;;;;;9.18;91.79;99826.52;1689706;85;20987;-46
2022/10/09 04:10:58;;;;;;;11.22;5.78;;;;;;;9.18;91.76;99825.67;1689733;85;21015;-44
2022/10/09 04:13:25;;;;;;;10.70;5.85;;;;;;;9.19;91.42;99832.17;1689840;84;20991;-41
2022/10/09 04:15:52;;;;;;;8.33;5.23;;;;;;;9.12;91.96;99843.83;1689919;85;21350;-45
2022/10/09 04:18:18;;;;;;;9.50;5.10;;;;;;;9.15;91.25;99844.16;1689915;85;21003;-46
2022/10/09 04:20:53;;;;;;;13.45;5.22;;;;;;;9.07;91.41;99836.60;1689788;85;20998;-43
2022/10/09 04:23:22;;;;;;;11.48;4.95;;;;;;;9.07;91.48;99839.23;1689746;85;21046;-47
2022/10/09 04:25:49;;;;;;;16.75;5.00;;;;;;;9.01;91.33;99846.05;1689746;85;21003;-48
2022/10/09 04:28:15;;;;;;;;;;;;;;;8.97;91.28;99846.63;1692221;85;21011;-47
2022/10/09 04:30:40;;;;;;;10.88;5.25;;;;;;;8.94;92.36;99845.89;1689672;85;20147;-52
2022/10/09 04:33:06;;;;;;;7.20;4.53;;;;;;;8.99;91.44;99859.22;1689959;85;21566;-50
2022/10/09 04:35:32;;;;;;;12.55;4.37;;;;;;;8.96;91.23;99858.48;1689726;85;21054;-42
2022/10/09 04:37:58;;;;;;;7.65;5.00;;;;;;;8.87;92.02;99864.09;1689720;85;21002;-46
2022/10/09 04:40:23;;;;;;;10.93;4.80;;;;;;;8.81;92.47;99864.72;1689699;85;21007;-43
2022/10/09 04:42:49;;;;;;;9.98;5.12;;;;;;;8.90;91.68;99861.36;1692730;85;21457;-39
2022/10/09 04:45:15;;;;;;;7.92;5.42;;;;;;;8.85;92.01;99861.52;1695066;85;21011;-46
2022/10/09 04:47:40;;;;;;;8.40;5.50;;;;;;;8.88;91.79;99868.41;1695130;85;20999;-45
2022/10/09 04:50:07;;;;;;;9.73;5.83;;;;;;;8.87;91.56;99874.58;1695156;85;21042;-42
2022/10/09 04:52:33;;;;;;;9.78;5.37;;;;;;;8.86;91.85;99876.80;1695291;84;21472;-48
2022/10/09 04:54:59;;;;;;;9.48;5.20;;;;;;;8.80;92.38;99872.64;1695270;85;20978;-46
2022/10/09 04:57:25;;;;;;;7.05;5.05;;;;;;;8.84;91.89;99885.59;1695170;85;21038;-44
2022/10/09 04:59:50;;;;;;;13.05;5.55;;;;;;;8.84;91.72;99880.35;1695113;85;20977;-47
2022/10/09 05:02:16;;;;;;;8.13;5.75;;;;;;;8.87;91.62;99888.55;1695149;85;21038;-44
2022/10/09 05:04:43;;;;;;;9.70;5.12;;;;;;;8.88;91.97;99892.02;1695158;85;21082;-44
2022/10/09 05:07:08;;;;;;;16.23;5.53;;;;;;;8.92;91.42;99891.00;1695392;85;21049;-43
2022/10/09 05:09:34;;;;;;;8.80;5.37;;;;;;;8.90;91.50;99895.45;1695180;85;21527;-47
2022/10/09 05:12:00;;;;;;;17.82;5.78;;;;;;;8.89;91.79;99893.73;1695256;85;21452;-46
2022/10/09 05:14:26;;;;;;;10.32;5.62;;;;;;;8.89;91.32;99891.11;1695187;84;21459;-49
2022/10/09 05:16:52;;;;;;;7.78;5.28;;;;;;;8.85;91.44;99903.48;1695196;85;20974;-49
2022/10/09 05:19:18;;;;;;;14.13;5.53;;;;;;;8.82;91.22;99904.47;1695123;85;21035;-42
2022/10/09 05:21:43;;;;;;;15.13;5.35;;;;;;;8.69;92.94;99905.83;1695116;85;21035;-41
2022/10/09 05:24:09;;;;;;;12.60;5.47;;;;;;;8.79;92.48;99915.07;1695107;85;20982;-47
2022/10/09 05:26:35;;;;;;;8.53;5.55;;;;;;;8.80;92.31;99911.98;1695111;85;20999;-46
2022/10/09 05:29:01;;;;;;;8.40;5.20;;;;;;;8.82;92.41;99914.96;1695107;85;20970;-44
2022/10/09 05:31:28;;;;;;;16.02;5.53;;;;;;;8.89;91.40;99916.03;1695193;85;21002;-40
2022/10/09 05:33:57;;;;;;;12.15;5.47;;;;;;;8.86;92.22;99912.20;1695423;85;20971;-42
2022/10/09 05:36:23;;;;;;;13.50;5.30;;;;;;;8.83;91.89;99915.34;1695119;85;21015;-40
2022/10/09 05:38:49;;;;;;;11.93;5.60;;;;;;;8.90;91.77;99925.63;1695133;85;21050;-45
2022/10/09 05:41:17;;;;;;;8.00;5.25;;;;;;;8.90;91.50;99923.84;1695107;85;21014;-43
2022/10/09 05:43:46;;;;;;;11.10;5.90;;;;;;;8.88;91.83;99930.04;1695016;85;21007;-42
2022/10/09 05:46:18;;;;;;;12.13;5.85;;;;;;;8.87;91.49;99931.81;1695076;84;21598;-41
2022/10/09 05:48:48;;;;;;;6.30;4.85;;;;;;;8.86;91.60;99931.87;1695199;85;21020;-49
2022/10/09 05:51:24;;;;;;;9.13;5.65;;;;;;;8.79;91.59;99933.42;1695065;85;21108;-40
2022/10/09 05:53:50;;;;;;;7.87;5.55;;;;;;;8.83;91.97;99942.88;1695062;85;21046;-43
2022/10/09 05:56:22;;;;;;;8.20;5.65;;;;;;;8.92;91.57;99948.70;1695109;85;21062;-47
2022/10/09 05:58:59;;;;;;;19.23;5.55;;;;;;;8.94;91.51;99942.94;1695173;84;20998;-48
2022/10/09 06:01:34;;;;;;;10.68;5.47;;;;;;;8.99;91.28;99946.25;1695165;84;21010;-49
2022/10/09 06:04:01;;;;;;;9.18;5.05;;;;;;;9.02;91.12;99952.23;1695170;84;21018;-47
2022/10/09 06:06:31;;;;;;;10.35;5.72;;;;;;;9.05;90.84;99959.59;1695157;84;21002;-44
2022/10/09 06:08:57;;;;;;;10.88;5.15;;;;;;;8.99;90.93;99964.61;1695170;84;21481;-47
2022/10/09 06:11:28;;;;;;;5.92;4.50;;;;;;;9.02;90.70;99968.41;1695073;85;21497;-42
2022/10/09 06:13:55;;;;;;;14.50;4.67;;;;;;;9.04;91.03;99963.98;1694421;85;20999;-43
2022/10/09 06:16:25;;;;;;;7.80;4.87;;;;;;;9.03;91.05;99979.31;1695192;85;21054;-48
2022/10/09 06:18:52;;;;;;;10.98;5.12;;;;;;;9.03;90.71;99981.47;1695013;85;20979;-43
2022/10/09 06:21:18;;;;;;;;;;;;;;;9.01;90.77;99983.77;1697724;84;21050;-42
2022/10/09 06:23:50;;;;;;;12.60;5.35;;;;;;;9.01;90.99;99985.08;1695170;84;20455;-47
2022/10/09 06:26:17;;;;;;;7.97;5.70;;;;;;;9.04;90.45;99991.53;1695121;85;21527;-49
2022/10/09 06:28:43;;;;;;;9.33;5.90;;;;;;;8.93;90.76;99988.44;1695233;85;21006;-41
2022/10/09 06:31:16;;;;;;;13.13;6.00;;;;;;;9.00;90.93;99999.10;1695187;85;21002;-41
2022/10/09 06:33:44;;;;;;;11.53;5.28;;;;;;;9.04;90.65;99999.41;1695051;85;20999;-44
2022/10/09 06:36:17;;;;;;;9.55;5.12;;;;;;;9.08;90.76;100003.62;1695145;85;21007;-42
2022/10/09 06:38:43;;;;;;;21.82;9.48;;;;;;;9.08;90.55;100003.62;1694375;85;21010;-43
2022/10/09 06:41:13;;;;;;;12.68;6.90;;;;;;;9.03;90.31;100014.73;1695090;85;21018;-46
2022/10/09 06:43:39;;;;;;;18.57;8.20;;;;;;;9.01;90.60;100013.94;1690770;85;21035;-45
2022/10/09 06:46:10;;;;;;;16.00;8.13;;;;;;;9.03;90.03;100013.42;1693396;83;21063;-46
2022/10/09 06:48:38;;;;;;;19.87;8.18;;;;;;;9.03;90.62;100018.20;1689573;85;21047;-43
2022/10/09 06:51:14;;;;;;;24.27;11.88;;;;;;;9.07;90.71;100015.48;1689599;85;21006;-42
2022/10/09 06:53:44;;;;;;;39.08;18.35;;;;;;;9.09;90.48;100017.12;1689637;84;21004;-43
2022/10/09 06:56:11;;;;;;;24.90;13.00;;;;;;;9.11;90.54;100026.25;1689138;85;21011;-48
2022/10/09 06:58:38;;;;;;;16.95;7.30;;;;;;;9.16;90.32;100025.16;1689785;85;21460;-45
2022/10/09 07:01:17;;;;;;;20.70;10.08;;;;;;;9.20;90.09;100034.65;1689827;85;21011;-45
2022/10/09 07:03:47;;;;;;;15.50;7.10;;;;;;;9.22;90.07;100037.19;1689589;85;21500;-45
2022/10/09 07:06:25;;;;;;;11.97;7.72;;;;;;;9.23;89.76;100041.54;1689652;85;21019;-50
2022/10/09 07:08:56;;;;;;;20.45;11.12;;;;;;;9.23;89.67;100048.95;1689572;85;21015;-49
2022/10/09 07:11:25;;;;;;;14.80;7.12;;;;;;;9.25;89.44;100047.58;1689565;85;21022;-50
2022/10/09 07:13:59;;;;;;;17.23;6.75;;;;;;;9.22;89.66;100047.69;1689757;85;21670;-42
2022/10/09 07:16:30;;;;;;;15.13;6.70;;;;;;;9.23;89.71;100050.72;1689734;85;21002;-45
2022/10/09 07:18:56;;;;;;;13.65;7.00;;;;;;;9.26;89.59;100051.05;1689186;85;21011;-48
2022/10/09 07:21:27;;;;;;;20.23;10.32;;;;;;;9.26;89.71;100056.30;1689915;85;21488;-45
2022/10/09 07:23:50;;;;;;;17.50;7.40;;;;;;;9.25;89.94;100058.55;1689012;85;20995;-48
2022/10/09 07:26:21;;;;;;;14.78;7.58;;;;;;;9.25;90.01;100059.86;1689719;85;21018;-46
2022/10/09 07:28:48;;;;;;;17.90;7.33;;;;;;;9.22;90.10;100064.75;1689690;85;21003;-49
2022/10/09 07:31:15;;;;;;;14.15;7.03;;;;;;;9.21;89.80;100061.27;1689865;85;21050;-46
2022/10/09 07:33:41;;;;;;;9.53;5.60;;;;;;;9.24;89.83;100068.20;1690015;85;21539;-52
2022/10/09 07:36:08;;;;;;;16.48;9.60;;;;;;;9.29;89.38;100067.54;1689763;85;21007;-47
2022/10/09 07:38:34;;;;;;;12.40;5.53;;;;;;;9.23;89.89;100073.03;1689860;85;21042;-43
2022/10/09 07:41:03;;;;;;;19.50;5.25;;;;;;;9.28;89.56;100075.47;1689739;85;20979;-43
2022/10/09 07:43:30;;;;;;;9.65;4.72;;;;;;;9.28;89.72;100079.41;1689480;85;21026;-40
2022/10/09 07:46:00;;;;;;;13.00;7.42;;;;;;;9.27;89.72;100085.12;1689697;85;21010;-50
2022/10/09 07:48:27;;;;;;;35.25;13.35;;;;;;;9.25;89.35;100088.27;1689777;85;21047;-48
2022/10/09 07:50:54;;;;;;;8.58;6.05;;;;;;;9.19;89.87;100091.13;1690055;85;21921;-46
2022/10/09 07:53:20;;;;;;;13.40;5.55;;;;;;;9.12;90.26;100090.48;1689914;85;21006;-46
2022/10/09 07:55:47;;;;;;;11.43;5.70;;;;;;;9.16;90.19;100098.64;1689732;85;21042;-52
2022/10/09 07:58:14;;;;;;;;;;;;;;;9.19;89.96;100095.91;1692258;85;21637;-45
2022/10/09 08:00:40;;;;;;;15.20;5.35;;;;;;;9.20;89.33;100096.32;1689887;85;20460;-48
2022/10/09 08:03:06;;;;;;;10.85;4.78;;;;;;;9.18;89.27;100089.40;1689805;85;21475;-44
2022/10/09 08:05:32;;;;;;;8.08;4.47;;;;;;;9.15;89.68;100096.06;1689691;85;21015;-47
2022/10/09 08:07:58;;;;;;;13.20;5.20;;;;;;;9.15;90.09;100087.75;1689692;85;21010;-50
2022/10/09 08:10:23;;;;;;;9.68;5.80;;;;;;;9.24;89.86;100091.81;1689738;84;21139;-48
2022/10/09 08:12:49;;;;;;;15.85;6.92;;;;;;;9.33;89.89;100099.78;1689690;85;21010;-44
2022/10/09 08:15:15;;;;;;;8.03;5.60;;;;;;;9.35;89.49;100100.58;1689670;85;21018;-46
2022/10/09 08:17:41;;;;;;;14.73;5.85;;;;;;;9.45;89.01;100099.80;1689679;85;20979;-49
2022/10/09 08:20:08;;;;;;;9.78;5.50;;;;;;;9.49;89.12;100104.85;1689909;85;20991;-43
2022/10/09 08:22:34;;;;;;;9.28;5.20;;;;;;;9.55;88.75;100109.89;1689917;84;21002;-46
2022/10/09 08:25:00;;;;;;;10.38;4.58;;;;;;;9.54;88.23;100115.20;1689715;85;21512;-50
2022/10/09 08:27:25;;;;;;;10.75;5.20;;;;;;;9.55;87.95;100120.39;1689755;84;22050;-42
2022/10/09 08:29:51;;;;;;;7.92;3.75;;;;;;;9.59;87.59;100123.30;1689774;85;21487;-50
2022/10/09 08:32:17;;;;;;;9.00;3.90;;;;;;;9.54;87.28;100121.30;1689645;85;20987;-51
2022/10/09 08:34:42;;;;;;;12.60;4.92;;;;;;;9.71;86.91;100125.89;1689727;85;21007;-51
2022/10/09 08:37:08;;;;;;;9.85;4.55;;;;;;;9.69;86.24;100124.25;1689709;85;21006;-46
2022/10/09 08:39:34;;;;;;;9.08;4.55;;;;;;;9.66;85.12;100121.30;1689879;85;21014;-46
2022/10/09 08:42:02;;;;;;;10.10;4.75;;;;;;;9.70;85.62;100129.92;1689660;85;21046;-49
2022/10/09 08:44:41;;;;;;;11.22;4.20;;;;;;;9.85;86.06;100134.56;1680277;84;21023;-42
2022/10/09 08:47:24;;;;;;;9.33;3.40;;;;;;;9.94;85.62;100136.84;1678383;85;21746;-45
2022/10/09 08:50:09;;;;;;;7.62;3.65;;;;;;;9.96;84.58;100133.69;1678377;85;21011;-40
2022/10/09 08:53:13;;;;;;;4.87;2.92;;;;;;;10.07;83.95;100144.24;1678092;85;20998;-47
2022/10/09 08:55:55;;;;;;;6.85;3.15;;;;;;;10.14;83.23;100148.34;1678404;85;21544;-51
2022/10/09 08:58:24;;;;;;;7.53;4.05;;;;;;;10.10;83.36;100150.70;1678343;85;21055;-44
2022/10/09 09:01:24;;;;;;;7.22;3.35;;;;;;;10.19;83.07;100152.96;1678344;84;21003;-50
2022/10/09 09:04:24;;;;;;;9.00;3.50;;;;;;;10.30;83.04;100151.22;1678208;85;21011;-47
2022/10/09 09:07:16;;;;;;;7.05;3.15;;;;;;;10.32;82.79;100151.58;1678365;85;21457;-50
2022/10/09 09:10:08;;;;;;;7.95;3.92;;;;;;;10.40;83.01;100153.03;1678336;84;21015;-44
2022/10/09 09:12:59;;;;;;;7.60;3.62;;;;;;;10.47;82.57;100157.12;1678376;85;21002;-53
2022/10/09 09:15:47;;;;;;;9.35;3.60;;;;;;;10.45;82.43;100156.34;1678406;85;20999;-46
2022/10/09 09:18:54;;;;;;;9.95;3.83;;;;;;;10.48;82.67;100157.54;1677787;85;21007;-47
2022/10/09 09:21:40;;;;;;;9.53;3.67;;;;;;;10.51;82.96;100154.33;1677585;85;21010;-48
2022/10/09 09:24:13;;;;;;;8.10;3.23;;;;;;;10.52;82.75;100152.54;1678565;84;20983;-43
2022/10/09 09:26:42;;;;;;;9.03;3.62;;;;;;;10.52;82.66;100157.80;1683891;85;21299;-47
2022/10/09 09:29:13;;;;;;;9.15;3.45;;;;;;;10.55;82.77;100156.34;1678299;85;21047;-41
2022/10/09 09:31:39;;;;;;;7.40;3.90;;;;;;;10.59;82.89;100159.27;1678426;84;21035;-47
2022/10/09 09:34:19;;;;;;;6.17;3.67;;;;;;;10.62;82.65;100156.48;1678593;84;21012;-42
2022/10/09 09:36:56;;;;;;;7.37;3.35;;;;;;;10.63;82.56;100159.98;1649131;85;21010;-45
2022/10/09 09:39:26;;;;;;;11.43;3.83;;;;;;;10.63;82.85;100163.47;1650726;85;21021;-49
2022/10/09 09:41:57;;;;;;;11.75;4.20;;;;;;;10.69;82.82;100168.45;1650350;87;21555;-44
2022/10/09 09:44:25;;;;;;;11.45;4.10;;;;;;;10.70;82.92;100170.66;1667223;85;21070;-46
2022/10/09 09:46:52;;;;;;;12.65;3.77;;;;;;;10.70;82.43;100169.34;1675769;85;21018;-49
2022/10/09 09:49:22;;;;;;;13.13;4.12;;;;;;;10.80;82.41;100173.74;1675488;85;21010;-45
2022/10/09 09:51:49;;;;;;;11.43;3.70;;;;;;;10.84;82.39;100174.00;1675967;84;21006;-47
2022/10/09 09:54:19;;;;;;;9.75;3.67;;;;;;;10.99;82.11;100176.44;1675772;85;21344;-46
2022/10/09 09:56:46;;;;;;;9.70;4.05;;;;;;;11.04;80.97;100174.03;1675746;85;20975;-47
2022/10/09 09:59:42;;;;;;;8.03;3.47;;;;;;;11.03;80.94;100174.09;1675794;85;20998;-49
2022/10/09 10:02:18;;;;;;;6.83;3.42;;;;;;;11.09;81.03;100175.97;1675850;85;21010;-48
2022/10/09 10:04:56;;;;;;;6.37;3.25;;;;;;;11.23;79.84;100176.70;1676184;85;21006;-43
2022/10/09 10:07:34;;;;;;;13.10;7.17;;;;;;;11.35;78.77;100174.00;1674850;85;21003;-44
2022/10/09 10:10:19;;;;;;;10.23;3.52;;;;;;;11.41;78.59;100168.92;1676099;85;21451;-47
2022/10/09 10:12:55;;;;;;;9.80;3.87;;;;;;;11.41;78.75;100180.30;1676056;85;21006;-43
2022/10/09 10:15:30;;;;;;;12.65;3.52;;;;;;;11.37;78.48;100172.16;1676129;85;21014;-44
2022/10/09 10:18:12;;;;;;;8.60;3.15;;;;;;;11.42;77.61;100174.56;1676132;85;21490;-43
2022/10/09 10:20:58;;;;;;;7.97;3.58;;;;;;;11.50;77.14;100182.52;1676048;85;21010;-42
2022/10/09 10:23:33;;;;;;;6.75;2.98;;;;;;;11.56;76.85;100174.80;1675660;85;21010;-48
2022/10/09 10:26:13;;;;;;;6.50;2.98;;;;;;;11.69;76.44;100185.64;1676093;84;21531;-46
2022/10/09 10:28:47;;;;;;;8.75;3.67;;;;;;;11.71;74.53;100174.56;1676101;84;21523;-46
2022/10/09 10:31:18;;;;;;;8.70;2.90;;;;;;;11.86;75.50;100172.55;1650987;85;21555;-48
2022/10/09 10:33:49;;;;;;;9.40;2.75;;;;;;;12.13;76.57;100170.88;1668952;85;21574;-45
2022/10/09 10:36:15;;;;;;;8.45;3.20;;;;;;;12.19;74.40;100182.47;1676122;85;21026;-43
2022/10/09 10:38:49;;;;;;;7.35;3.27;;;;;;;12.23;75.12;100177.90;1676170;84;21527;-48
2022/10/09 10:41:23;;;;;;;8.05;2.92;;;;;;;12.16;74.92;100185.23;1675748;84;21010;-47
2022/10/09 10:44:15;;;;;;;26.85;13.80;;;;;;;11.93;72.35;100186.78;1677710;85;21558;-48
2022/10/09 10:47:03;;;;;;;9.43;5.00;;;;;;;11.89;73.57;100178.98;1662525;84;21017;-44
2022/10/09 10:49:30;;;;;;;6.62;3.02;;;;;;;11.85;74.25;100179.21;1680585;85;20986;-42
2022/10/09 10:52:18;;;;;;;7.83;3.60;;;;;;;11.78;73.26;100174.67;1680627;84;21916;-48
2022/10/09 10:54:58;;;;;;;13.58;3.12;;;;;;;11.89;73.33;100177.66;1679735;85;21448;-46
2022/10/09 10:58:11;;;;;;;4.65;2.30;;;;;;;12.05;73.02;100187.06;1680291;85;20998;-47
2022/10/09 11:00:42;;;;;;;5.72;2.40;;;;;;;12.12;73.32;100181.52;1672275;85;21506;-47
2022/10/09 11:03:36;;;;;;;6.10;2.37;;;;;;;12.15;72.41;100176.95;1680546;85;21487;-43
2022/10/09 11:06:27;;;;;;;7.25;2.72;;;;;;;12.17;70.86;100180.81;1680290;85;20975;-48
2022/10/09 11:09:21;;;;;;;6.55;2.62;;;;;;;12.37;72.02;100184.69;1679690;85;20990;-45
2022/10/09 11:12:02;;;;;;;2.60;2.10;;;;;;;12.50;69.54;100184.94;1677427;85;21018;-40
2022/10/09 11:15:06;;;;;;;3.85;2.15;;;;;;;12.42;68.94;100182.66;1680123;85;21054;-51
2022/10/09 11:18:04;;;;;;;5.70;2.60;;;;;;;12.44;69.76;100186.09;1680170;85;20994;-45
2022/10/09 11:20:45;;;;;;;5.78;2.05;;;;;;;12.41;69.01;100187.56;1607549;88;21007;-43
2022/10/09 11:23:22;;;;;;;3.33;1.98;;;;;;;12.48;69.15;100186.33;1633196;87;21015;-44
2022/10/09 11:26:14;;;;;;;5.03;2.30;;;;;;;12.46;69.74;100177.64;1626804;87;20999;-44
2022/10/09 11:29:03;;;;;;;10.03;2.52;;;;;;;12.47;69.77;100183.29;1633106;88;21035;-48
2022/10/09 11:31:37;;;;;;;3.67;2.47;;;;;;;12.44;69.27;100182.58;1632648;86;21035;-45
2022/10/09 11:34:20;;;;;;;3.98;2.08;;;;;;;12.40;69.77;100179.23;1633192;87;21023;-43
2022/10/09 11:36:45;;;;;;;6.05;2.37;;;;;;;12.32;69.49;100170.02;1630970;87;21051;-45
2022/10/09 11:39:23;;;;;;;11.78;2.72;;;;;;;12.29;69.97;100171.84;1633277;87;21089;-44
2022/10/09 11:41:52;;;;;;;6.17;1.87;;;;;;;12.28;69.88;100175.91;1633162;88;21075;-52
2022/10/09 11:44:32;;;;;;;6.50;2.17;;;;;;;12.31;68.95;100166.50;1625836;88;21534;-45
2022/10/09 11:47:16;;;;;;;5.58;2.00;;;;;;;12.38;68.03;100165.75;1615258;89;21566;-50
2022/10/09 11:50:04;;;;;;;4.58;1.87;;;;;;;13.24;71.57;100162.71;1616289;89;21020;-55
2022/10/09 11:52:59;;;;;;;3.15;1.77;;;;;;;15.05;68.99;100164.16;1616011;89;21050;-53